logo
Search for airport 
image banner adimage banner adimage banner ad
image banner ad

SNDL - Luciano Cavalcante

Located in Paraipaba, Brazil

ICAO - SNDL, IATA -

Data provided by Airmate  

General information

Coordinates: S3°20'45" W39°7'34"
Elevation is 45 feet MSL.
Magnetic variation is -21° East
View others Airports in Ceará

Operational data

Special qualification required
Current time UTC:
Current local time:
Weather at : - ( 0 km )
METAR: YSCB 131531Z AUTO 00000KT 9999 // BKN015 09/09 Q1024 RF00.0/000.0
View NOTAMs / SUP AIP / TFR affecting this airport [VIEW]
Communications frequencies: [VIEW]

Runways:

Airport contact information

Address: Paraipaba Brazil

Satellite view of SNDL